Time;durP1;ratioP1;P1;durP2;ratioP2;P2;SDS_P1;SDS_P2;PMS_P1;PMS_P2;Temp;Humidity;BMP_temperature;BMP_pressure;BME280_temperature;BME280_humidity;BME280_pressure;Samples;Min_cycle;Max_cycle;Signal;HPM_P1;HPM_P2
2023/05/02 00:02:27;;;;;;;9.60;9.30;;;8.60;99.90;;;;;;5041811;28;20322;-81
2023/05/02 00:04:55;;;;;;;9.60;9.30;;;8.60;99.90;;;;;;5042619;28;20239;-82
2023/05/02 00:07:22;;;;;;;9.40;9.10;;;8.60;99.90;;;;;;5045150;28;20263;-82
2023/05/02 00:09:50;;;;;;;9.77;9.47;;;8.60;99.90;;;;;;5034971;28;20291;-82
2023/05/02 00:12:19;;;;;;;9.60;9.30;;;8.50;99.90;;;;;;5043726;28;20234;-82
2023/05/02 00:14:47;;;;;;;9.50;9.20;;;8.50;99.90;;;;;;5031760;28;20232;-82
2023/05/02 00:17:18;;;;;;;9.57;9.27;;;8.50;99.90;;;;;;5040192;28;20299;-82
2023/05/02 00:19:47;;;;;;;9.60;9.30;;;8.50;99.90;;;;;;5042930;28;20254;-82
2023/05/02 00:22:15;;;;;;;9.50;9.20;;;8.50;99.90;;;;;;5025922;28;20323;-82
2023/05/02 00:24:43;;;;;;;9.50;9.20;;;8.40;99.90;;;;;;5041905;28;20302;-82
2023/05/02 00:27:10;;;;;;;9.50;9.20;;;8.40;99.90;;;;;;5042186;28;20236;-82
2023/05/02 00:29:38;;;;;;;9.60;9.30;;;8.40;99.90;;;;;;5038556;28;20275;-82
2023/05/02 00:32:07;;;;;;;9.47;9.17;;;8.40;99.90;;;;;;5029675;28;20236;-81
2023/05/02 00:34:34;;;;;;;9.50;9.20;;;8.40;99.90;;;;;;5033936;28;20249;-82
2023/05/02 00:37:03;;;;;;;9.67;9.37;;;8.40;99.90;;;;;;5042722;28;20298;-82
2023/05/02 00:39:31;;;;;;;9.47;9.17;;;8.40;99.90;;;;;;5049102;28;20229;-82
2023/05/02 00:41:59;;;;;;;9.70;9.40;;;8.30;99.90;;;;;;5047329;28;20346;-82
2023/05/02 00:44:26;;;;;;;9.60;9.30;;;8.30;99.90;;;;;;5033887;28;20244;-82
2023/05/02 00:46:54;;;;;;;9.60;9.30;;;8.30;99.90;;;;;;5037210;28;20235;-82
2023/05/02 00:49:22;;;;;;;9.70;9.40;;;8.30;99.90;;;;;;5033630;28;20631;-82
2023/05/02 00:51:50;;;;;;;9.60;9.30;;;8.30;99.90;;;;;;5042372;28;20240;-82
2023/05/02 00:54:18;;;;;;;9.70;9.40;;;8.20;99.90;;;;;;5033794;28;20316;-82
2023/05/02 00:56:46;;;;;;;9.60;9.30;;;8.20;99.90;;;;;;5041415;28;20274;-82
2023/05/02 00:59:15;;;;;;;9.50;9.20;;;8.20;99.90;;;;;;5041210;28;20314;-82
2023/05/02 01:01:55;;;;;;;9.57;9.27;;;8.20;99.90;;;;;;5042351;28;20274;-82
2023/05/02 01:04:35;;;;;;;9.63;9.33;;;8.20;99.90;;;;;;5033132;28;20274;-81
2023/05/02 01:07:31;;;;;;;9.67;9.37;;;8.10;99.90;;;;;;5033994;28;20267;-82
2023/05/02 01:10:12;;;;;;;9.57;9.27;;;8.10;99.90;;;;;;5030218;28;20249;-81
2023/05/02 01:12:44;;;;;;;9.60;9.30;;;8.00;99.90;;;;;;5041628;28;20232;-81
2023/05/02 01:15:18;;;;;;;9.80;9.50;;;7.90;99.90;;;;;;5041209;28;20237;-82
2023/05/02 01:17:48;;;;;;;9.60;9.30;;;7.90;99.90;;;;;;5030616;28;20226;-82
2023/05/02 01:20:20;;;;;;;9.70;9.40;;;7.90;99.90;;;;;;5055243;28;20242;-81
2023/05/02 01:22:49;;;;;;;9.70;9.40;;;7.90;99.90;;;;;;5042574;28;20216;-81
2023/05/02 01:25:30;;;;;;;9.53;9.23;;;7.80;99.90;;;;;;5033573;28;20247;-82
2023/05/02 01:28:11;;;;;;;9.67;9.37;;;7.80;99.90;;;;;;5045523;28;20235;-82
2023/05/02 01:30:43;;;;;;;9.53;9.23;;;7.70;99.90;;;;;;5043946;28;20241;-82
2023/05/02 01:33:14;;;;;;;9.60;9.30;;;7.60;99.90;;;;;;5034779;28;20238;-82
2023/05/02 01:35:44;;;;;;;9.70;9.40;;;7.50;99.90;;;;;;5043396;28;20259;-82
2023/05/02 01:38:15;;;;;;;9.70;9.40;;;7.50;99.90;;;;;;5051005;28;20250;-82
2023/05/02 01:40:45;;;;;;;9.70;9.40;;;7.40;99.90;;;;;;5055190;28;20246;-82
2023/05/02 01:43:14;;;;;;;9.80;9.50;;;7.40;99.90;;;;;;5054025;28;20254;-82
2023/05/02 01:45:46;;;;;;;9.60;9.30;;;7.30;99.90;;;;;;5031628;28;20322;-82
2023/05/02 01:48:15;;;;;;;9.60;9.30;;;7.20;99.90;;;;;;5037302;28;20231;-82
2023/05/02 01:50:45;;;;;;;9.50;9.20;;;7.20;99.90;;;;;;5029644;28;20260;-83
2023/05/02 01:53:14;;;;;;;9.60;9.30;;;7.10;99.90;;;;;;5044253;28;20259;-83
2023/05/02 01:55:45;;;;;;;9.50;9.20;;;7.10;99.90;;;;;;5029333;28;20255;-83
2023/05/02 01:58:14;;;;;;;9.60;9.30;;;7.10;99.90;;;;;;5044055;28;20242;-82
2023/05/02 02:00:45;;;;;;;9.53;9.23;;;7.10;99.90;;;;;;5042503;28;20216;-83
2023/05/02 02:03:13;;;;;;;9.70;9.40;;;7.10;99.90;;;;;;5041711;28;20232;-83
2023/05/02 02:05:42;;;;;;;9.63;9.33;;;7.10;99.90;;;;;;5041829;28;20239;-83
2023/05/02 02:08:10;;;;;;;9.50;9.20;;;7.10;99.90;;;;;;5042260;28;20238;-82
2023/05/02 02:10:45;;;;;;;9.60;9.30;;;7.10;99.90;;;;;;5042374;28;20302;-83
2023/05/02 02:13:20;;;;;;;9.50;9.20;;;7.10;99.90;;;;;;5041072;28;20278;-83
2023/05/02 02:15:51;;;;;;;9.40;9.10;;;7.10;99.90;;;;;;5041162;28;20330;-82
2023/05/02 02:18:22;;;;;;;9.50;9.20;;;7.10;99.90;;;;;;5043891;28;20231;-83
2023/05/02 02:20:51;;;;;;;9.40;9.10;;;7.10;99.90;;;;;;5038533;28;20250;-82
2023/05/02 02:23:22;;;;;;;9.53;9.23;;;7.10;99.90;;;;;;5024252;28;20239;-83
2023/05/02 02:25:51;;;;;;;9.60;9.30;;;7.10;99.90;;;;;;5035032;28;20299;-83
2023/05/02 02:28:18;;;;;;;9.60;9.30;;;7.10;99.90;;;;;;5043429;28;20231;-83
2023/05/02 02:30:46;;;;;;;9.60;9.30;;;7.10;99.90;;;;;;5039349;28;20231;-82
2023/05/02 02:33:15;;;;;;;9.50;9.20;;;7.10;99.90;;;;;;5043056;28;20315;-83
2023/05/02 02:35:51;;;;;;;9.47;9.17;;;7.10;99.90;;;;;;5010502;28;20326;-83
2023/05/02 02:38:32;;;;;;;9.53;9.23;;;7.10;99.90;;;;;;5025502;28;20236;-83
2023/05/02 02:41:09;;;;;;;9.40;9.10;;;7.10;99.90;;;;;;5042333;28;20291;-83
2023/05/02 02:43:46;;;;;;;9.47;9.17;;;7.10;99.90;;;;;;5041868;28;20300;-82
2023/05/02 02:46:31;;;;;;;9.50;9.20;;;7.10;99.90;;;;;;5046096;28;20231;-83
2023/05/02 02:49:15;;;;;;;9.33;9.03;;;7.10;99.90;;;;;;5046940;28;20231;-83
2023/05/02 02:51:52;;;;;;;9.23;8.93;;;7.00;99.90;;;;;;5031471;28;20279;-82
2023/05/02 02:54:27;;;;;;;9.20;8.90;;;7.00;99.90;;;;;;5045041;28;20231;-83
2023/05/02 02:57:02;;;;;;;9.47;9.17;;;6.90;99.90;;;;;;5043466;28;20295;-83
2023/05/02 02:59:34;;;;;;;9.17;8.87;;;7.00;99.90;;;;;;5043218;28;20239;-83
2023/05/02 03:02:08;;;;;;;9.30;9.00;;;7.00;99.90;;;;;;5036853;28;20221;-83
2023/05/02 03:04:42;;;;;;;9.13;8.83;;;7.00;99.90;;;;;;5041680;28;20246;-83
2023/05/02 03:07:10;;;;;;;9.30;9.00;;;7.00;99.90;;;;;;5043781;28;20258;-83
2023/05/02 03:09:45;;;;;;;9.30;9.00;;;7.00;99.90;;;;;;5035131;28;20236;-81
2023/05/02 03:12:13;;;;;;;9.40;9.10;;;7.00;99.90;;;;;;5034018;28;20246;-83
2023/05/02 03:14:41;;;;;;;9.30;9.00;;;7.00;99.90;;;;;;5040532;28;20228;-83
2023/05/02 03:17:08;;;;;;;9.17;8.87;;;7.00;99.90;;;;;;5034076;28;20255;-83
2023/05/02 03:19:38;;;;;;;9.00;8.70;;;7.10;99.90;;;;;;5040661;28;20344;-82
2023/05/02 03:22:05;;;;;;;8.93;8.63;;;7.10;99.90;;;;;;5030602;28;20224;-83
2023/05/02 03:24:32;;;;;;;8.90;8.60;;;7.10;99.90;;;;;;5039631;28;20231;-83
2023/05/02 03:27:00;;;;;;;9.10;8.80;;;7.10;99.90;;;;;;5038492;28;20262;-83
2023/05/02 03:29:28;;;;;;;9.10;8.80;;;7.10;99.90;;;;;;5041988;28;20253;-83
2023/05/02 03:31:56;;;;;;;9.30;9.00;;;7.00;99.90;;;;;;5035380;28;20278;-84
2023/05/02 03:34:23;;;;;;;9.20;8.90;;;7.00;99.90;;;;;;5040936;28;20279;-83
2023/05/02 03:36:53;;;;;;;9.60;9.30;;;6.90;99.90;;;;;;5043080;28;20255;-83
2023/05/02 03:39:21;;;;;;;9.47;9.17;;;7.00;99.90;;;;;;5046166;28;20242;-82
2023/05/02 03:41:48;;;;;;;9.50;9.20;;;7.00;99.90;;;;;;5044697;28;20295;-83
2023/05/02 03:44:16;;;;;;;9.43;9.13;;;7.00;99.90;;;;;;5043964;28;20246;-83
2023/05/02 03:46:43;;;;;;;9.50;9.20;;;7.00;99.90;;;;;;5035756;28;20364;-83
2023/05/02 03:49:11;;;;;;;9.40;9.10;;;6.90;99.90;;;;;;5043215;28;20303;-83
2023/05/02 03:51:39;;;;;;;9.40;9.10;;;6.90;99.90;;;;;;5031387;28;20263;-83
2023/05/02 03:54:08;;;;;;;9.50;9.20;;;6.90;99.90;;;;;;5037664;28;20244;-82
2023/05/02 03:56:36;;;;;;;9.50;9.20;;;6.80;99.90;;;;;;5051747;28;20291;-82
2023/05/02 03:59:04;;;;;;;9.37;9.07;;;6.90;99.90;;;;;;5045129;28;20265;-83
2023/05/02 04:01:32;;;;;;;9.63;9.33;;;6.90;99.90;;;;;;5035495;28;20239;-83
2023/05/02 04:03:59;;;;;;;9.60;9.30;;;6.80;99.90;;;;;;5035482;28;20243;-83
2023/05/02 04:06:27;;;;;;;9.60;9.30;;;6.80;99.90;;;;;;5043389;28;20237;-83
2023/05/02 04:08:54;;;;;;;9.73;9.43;;;6.70;99.90;;;;;;5043042;28;20370;-83
2023/05/02 04:11:25;;;;;;;9.70;9.40;;;6.70;99.90;;;;;;5042675;28;20288;-83
2023/05/02 04:13:53;;;;;;;9.60;9.30;;;6.60;99.90;;;;;;5037564;28;20315;-83
2023/05/02 04:16:21;;;;;;;9.70;9.40;;;6.60;99.90;;;;;;5039603;28;20323;-83
2023/05/02 04:18:48;;;;;;;9.57;9.27;;;6.60;99.90;;;;;;5042000;28;20235;-83
2023/05/02 04:21:16;;;;;;;9.50;9.20;;;6.60;99.90;;;;;;5034146;28;20238;-83
2023/05/02 04:23:43;;;;;;;9.50;9.20;;;6.60;99.90;;;;;;5022328;28;20243;-83
2023/05/02 04:26:11;;;;;;;9.60;9.30;;;6.60;99.90;;;;;;5038546;28;20351;-83
2023/05/02 04:28:40;;;;;;;9.50;9.20;;;6.70;99.90;;;;;;5041957;28;20317;-83
2023/05/02 04:31:08;;;;;;;9.20;8.90;;;6.70;99.90;;;;;;5034857;28;20230;-83
2023/05/02 04:33:35;;;;;;;9.00;8.70;;;6.70;99.90;;;;;;5041035;28;20318;-83
2023/05/02 04:36:03;;;;;;;9.17;8.87;;;6.80;99.90;;;;;;5045396;28;20233;-82
2023/05/02 04:38:31;;;;;;;9.20;8.90;;;6.90;99.90;;;;;;5059167;28;20225;-81
2023/05/02 04:40:59;;;;;;;9.10;8.80;;;7.00;99.90;;;;;;5046997;28;20274;-82
2023/05/02 04:43:26;;;;;;;9.10;8.80;;;7.10;99.90;;;;;;5034234;28;20226;-83
2023/05/02 04:45:57;;;;;;;8.97;8.67;;;7.10;99.90;;;;;;5043124;28;20239;-83
2023/05/02 04:48:25;;;;;;;9.33;9.03;;;7.20;99.90;;;;;;5026158;28;20259;-83
2023/05/02 04:50:53;;;;;;;9.20;8.90;;;7.20;99.90;;;;;;5035250;28;20322;-83
2023/05/02 04:53:22;;;;;;;9.30;9.00;;;7.30;99.90;;;;;;5034829;28;20211;-83
2023/05/02 04:55:51;;;;;;;9.20;8.90;;;7.40;99.90;;;;;;5044680;28;20294;-83
2023/05/02 04:58:18;;;;;;;8.63;8.43;;;7.40;99.90;;;;;;5042659;28;20232;-82
2023/05/02 05:00:46;;;;;;;9.00;8.70;;;7.50;99.90;;;;;;5027682;28;20305;-83
2023/05/02 05:03:15;;;;;;;8.77;8.57;;;7.50;99.90;;;;;;5035236;28;20263;-83
2023/05/02 05:05:42;;;;;;;8.70;8.50;;;7.70;99.90;;;;;;5031186;28;20244;-83
2023/05/02 05:08:10;;;;;;;9.10;8.80;;;7.80;99.90;;;;;;5030864;28;20301;-82
2023/05/02 05:10:39;;;;;;;8.50;8.30;;;7.80;99.90;;;;;;5029047;28;20305;-81
2023/05/02 05:13:06;;;;;;;8.63;8.43;;;7.80;99.90;;;;;;5028469;28;20300;-82
2023/05/02 05:15:34;;;;;;;8.80;8.60;;;7.90;99.90;;;;;;5040496;28;20245;-81
2023/05/02 05:18:01;;;;;;;8.90;8.70;;;8.00;99.90;;;;;;5033259;28;20319;-82
2023/05/02 05:20:30;;;;;;;8.80;8.60;;;8.00;99.90;;;;;;5032663;28;20246;-82
2023/05/02 05:22:58;;;;;;;8.97;8.70;;;8.10;99.90;;;;;;5041791;28;20317;-82
2023/05/02 05:25:26;;;;;;;8.77;8.57;;;8.20;99.90;;;;;;5031496;28;20290;-82
2023/05/02 05:27:55;;;;;;;9.30;9.00;;;8.20;99.90;;;;;;5040660;28;20238;-82
2023/05/02 05:30:23;;;;;;;9.23;8.93;;;8.30;99.90;;;;;;5031842;28;20322;-82
2023/05/02 05:32:51;;;;;;;9.30;9.00;;;8.30;99.90;;;;;;5027100;28;20239;-82
2023/05/02 05:35:19;;;;;;;8.67;8.47;;;8.40;99.90;;;;;;5037663;28;20243;-83
2023/05/02 05:37:48;;;;;;;9.10;8.80;;;8.40;99.90;;;;;;5036414;28;20234;-82
2023/05/02 05:40:16;;;;;;;8.77;8.57;;;8.40;99.90;;;;;;5020822;28;20236;-83
2023/05/02 05:42:44;;;;;;;8.90;8.70;;;8.50;99.90;;;;;;5041406;28;20238;-83
2023/05/02 05:45:12;;;;;;;8.90;8.70;;;8.60;99.90;;;;;;5041902;28;20339;-83
2023/05/02 05:47:40;;;;;;;9.00;8.70;;;8.70;99.90;;;;;;5029011;28;20286;-82
2023/05/02 05:50:09;;;;;;;9.70;9.40;;;8.80;99.90;;;;;;5046116;28;20420;-81
2023/05/02 05:52:37;;;;;;;9.40;9.10;;;9.00;99.90;;;;;;5040356;28;20449;-81
2023/05/02 05:55:08;;;;;;;9.27;8.97;;;9.10;99.90;;;;;;5040945;28;20235;-81
2023/05/02 05:57:35;;;;;;;9.17;8.87;;;9.20;99.90;;;;;;5040449;28;20299;-81
2023/05/02 06:00:03;;;;;;;9.60;9.30;;;9.30;99.90;;;;;;5025250;28;20235;-82
2023/05/02 06:02:31;;;;;;;9.37;9.07;;;9.40;99.90;;;;;;5030744;28;20224;-83
2023/05/02 06:04:58;;;;;;;9.33;9.03;;;9.40;99.90;;;;;;5039923;28;20322;-82
2023/05/02 06:07:26;;;;;;;9.20;8.90;;;9.40;99.90;;;;;;5040559;28;20326;-81
2023/05/02 06:09:53;;;;;;;9.10;8.80;;;9.40;99.90;;;;;;5039838;28;20323;-81
2023/05/02 06:12:22;;;;;;;9.30;9.00;;;9.50;99.90;;;;;;5040092;28;20307;-81
2023/05/02 06:14:50;;;;;;;9.10;8.80;;;9.60;99.90;;;;;;5040509;28;20294;-82
2023/05/02 06:17:18;;;;;;;9.40;9.10;;;9.70;99.90;;;;;;5023334;28;20243;-83
2023/05/02 06:19:45;;;;;;;9.47;9.17;;;9.80;99.90;;;;;;5040007;28;20235;-81
2023/05/02 06:22:13;;;;;;;9.10;8.80;;;9.90;99.90;;;;;;5025620;28;20228;-83
2023/05/02 06:24:40;;;;;;;9.70;9.40;;;10.00;99.90;;;;;;5022612;28;20239;-81
2023/05/02 06:27:08;;;;;;;9.63;9.33;;;10.10;99.90;;;;;;5040145;28;20235;-82
2023/05/02 06:29:37;;;;;;;9.70;9.40;;;10.10;99.90;;;;;;5039647;28;20307;-81
2023/05/02 06:32:05;;;;;;;9.90;9.60;;;10.30;99.90;;;;;;5039678;28;20319;-80
2023/05/02 06:34:33;;;;;;;9.83;9.53;;;10.40;99.90;;;;;;5039402;28;20335;-81
2023/05/02 06:37:00;;;;;;;9.90;9.60;;;10.50;99.90;;;;;;5039264;28;20306;-81
2023/05/02 06:39:28;;;;;;;9.90;9.60;;;10.50;99.90;;;;;;5039484;28;20303;-81
2023/05/02 06:41:57;;;;;;;9.87;9.57;;;10.60;99.90;;;;;;5039387;28;20242;-81
2023/05/02 06:44:25;;;;;;;10.00;9.70;;;10.60;99.90;;;;;;5039453;28;20231;-80
2023/05/02 06:46:54;;;;;;;9.83;9.53;;;10.60;99.90;;;;;;5024903;28;20287;-81
2023/05/02 06:49:22;;;;;;;9.80;9.50;;;10.70;99.90;;;;;;5012000;28;20228;-79
2023/05/02 06:51:49;;;;;;;9.70;9.40;;;10.80;99.90;;;;;;5031764;28;20290;-81
2023/05/02 06:54:17;;;;;;;9.93;9.63;;;10.90;99.90;;;;;;5039617;28;20242;-81
2023/05/02 06:56:44;;;;;;;9.73;9.43;;;10.80;99.90;;;;;;5039773;28;20283;-81
2023/05/02 06:59:12;;;;;;;9.80;9.50;;;10.80;99.90;;;;;;5041183;28;20230;-84
2023/05/02 07:01:40;;;;;;;9.87;9.57;;;10.80;99.90;;;;;;5042269;28;20238;-83
2023/05/02 07:04:09;;;;;;;9.60;9.30;;;10.90;99.90;;;;;;5041627;28;20251;-83
2023/05/02 07:06:36;;;;;;;9.50;9.20;;;10.90;99.90;;;;;;5041947;28;20235;-84
2023/05/02 07:09:04;;;;;;;9.60;9.30;;;11.00;99.90;;;;;;5040558;28;20228;-85
2023/05/02 07:11:32;;;;;;;9.00;8.70;;;11.00;99.90;;;;;;5036710;28;20288;-84
2023/05/02 07:13:59;;;;;;;9.20;8.90;;;10.90;99.90;;;;;;5028907;28;20236;-82
2023/05/02 07:16:27;;;;;;;9.43;9.13;;;10.90;99.90;;;;;;5020432;28;20233;-82
2023/05/02 07:18:54;;;;;;;9.13;8.83;;;11.00;99.90;;;;;;5019819;28;20232;-81
2023/05/02 07:21:23;;;;;;;9.33;9.03;;;10.90;99.90;;;;;;5020710;28;20264;-81
2023/05/02 07:23:50;;;;;;;9.40;9.10;;;11.00;99.90;;;;;;5021257;28;20239;-82
2023/05/02 07:26:18;;;;;;;9.50;9.20;;;10.90;99.90;;;;;;5020279;28;20236;-82
2023/05/02 07:28:46;;;;;;;9.60;9.30;;;11.00;99.90;;;;;;5020697;28;20224;-83
2023/05/02 07:31:13;;;;;;;9.60;9.30;;;11.10;99.90;;;;;;5021197;28;20283;-81
2023/05/02 07:33:41;;;;;;;9.70;9.40;;;11.10;99.90;;;;;;5019862;28;20248;-82
2023/05/02 07:36:08;;;;;;;9.80;9.50;;;11.20;99.90;;;;;;5020368;28;20325;-82
2023/05/02 07:38:39;;;;;;;9.60;9.30;;;11.30;99.90;;;;;;5019340;28;20239;-87
2023/05/02 07:41:07;;;;;;;9.90;9.60;;;11.20;99.90;;;;;;5020203;28;20323;-86
2023/05/02 07:43:35;;;;;;;10.00;9.70;;;11.40;99.90;;;;;;5020025;28;20244;-85
2023/05/02 07:46:05;;;;;;;10.13;9.83;;;11.40;99.90;;;;;;5020003;28;20240;-83
2023/05/02 07:48:34;;;;;;;10.10;9.80;;;11.50;99.90;;;;;;5033675;28;20236;-80
2023/05/02 07:51:07;;;;;;;10.37;10.07;;;11.30;99.90;;;;;;5021225;28;20263;-82
2023/05/02 07:53:36;;;;;;;10.10;9.80;;;11.30;99.90;;;;;;5020697;28;20300;-80
2023/05/02 07:56:06;;;;;;;10.00;9.70;;;11.20;99.90;;;;;;5018780;28;20262;-81
2023/05/02 07:58:35;;;;;;;10.30;10.00;;;11.10;99.90;;;;;;5018656;28;20247;-82
2023/05/02 08:01:02;;;;;;;10.10;9.80;;;11.00;99.90;;;;;;5020160;28;20228;-82
2023/05/02 08:03:30;;;;;;;9.93;9.63;;;11.00;99.90;;;;;;5018464;28;20243;-81
2023/05/02 08:05:58;;;;;;;9.20;8.90;;;11.10;99.90;;;;;;5024625;28;20343;-82
2023/05/02 08:08:25;;;;;;;9.40;9.10;;;11.20;99.90;;;;;;5019854;28;20243;-84
2023/05/02 08:10:54;;;;;;;9.47;9.17;;;11.30;99.90;;;;;;5019277;28;20286;-83
2023/05/02 08:13:22;;;;;;;9.50;9.20;;;11.40;99.90;;;;;;5020221;28;20232;-81
2023/05/02 08:15:49;;;;;;;9.30;9.00;;;11.30;99.90;;;;;;5019995;28;20243;-83
2023/05/02 08:18:17;;;;;;;9.20;8.90;;;11.40;99.90;;;;;;5020462;28;20236;-86
2023/05/02 08:20:45;;;;;;;9.80;9.50;;;11.50;99.90;;;;;;5019625;28;20232;-84
2023/05/02 08:23:12;;;;;;;9.60;9.30;;;11.50;99.90;;;;;;5019747;28;20291;-83
2023/05/02 08:25:40;;;;;;;9.70;9.40;;;11.60;99.90;;;;;;5020683;28;20240;-84
2023/05/02 08:28:09;;;;;;;10.00;9.70;;;11.70;99.90;;;;;;5020401;28;20236;-83
2023/05/02 08:30:36;;;;;;;10.03;9.73;;;11.80;99.90;;;;;;5019294;28;20243;-83
2023/05/02 08:33:04;;;;;;;9.90;9.60;;;11.90;99.90;;;;;;5020584;28;20331;-84
2023/05/02 08:35:31;;;;;;;10.07;9.77;;;12.00;99.90;;;;;;5020022;28;20318;-83
2023/05/02 08:37:59;;;;;;;9.60;9.30;;;12.10;99.90;;;;;;5018311;28;20280;-82
2023/05/02 08:40:27;;;;;;;9.77;9.47;;;12.20;99.90;;;;;;5018985;28;20235;-81
2023/05/02 08:42:56;;;;;;;9.90;9.60;;;12.30;99.90;;;;;;5018618;28;20242;-80
2023/05/02 08:45:25;;;;;;;9.90;9.60;;;12.40;99.90;;;;;;5017650;28;20239;-80
2023/05/02 08:47:54;;;;;;;10.10;9.80;;;12.60;99.90;;;;;;5018387;28;20220;-81
2023/05/02 08:50:22;;;;;;;9.87;9.57;;;12.80;99.90;;;;;;5018140;28;20232;-83
2023/05/02 08:52:51;;;;;;;10.10;9.80;;;13.00;99.90;;;;;;5019026;28;20238;-82
2023/05/02 08:55:26;;;;;;;10.10;9.80;;;13.50;99.90;;;;;;5019407;28;20240;-82
2023/05/02 08:57:57;;;;;;;10.43;10.13;;;13.90;99.90;;;;;;5019063;28;20282;-82
2023/05/02 09:00:28;;;;;;;9.67;9.37;;;13.90;99.90;;;;;;5018256;28;20224;-82
2023/05/02 09:03:07;;;;;;;9.60;9.30;;;14.00;99.90;;;;;;5018882;28;20643;-82
2023/05/02 09:05:41;;;;;;;10.00;9.70;;;14.20;99.90;;;;;;5019123;28;20239;-82
2023/05/02 09:08:09;;;;;;;9.83;9.53;;;14.50;99.90;;;;;;5017521;28;20251;-81
2023/05/02 09:10:37;;;;;;;9.63;9.33;;;14.50;99.90;;;;;;5017938;28;20256;-82
2023/05/02 09:13:34;;;;;;;10.00;9.70;;;14.40;99.90;;;;;;5018425;28;20250;-83
2023/05/02 09:16:05;;;;;;;9.93;9.63;;;14.10;99.90;;;;;;5015562;28;20232;-81
2023/05/02 09:18:35;;;;;;;9.83;9.53;;;14.10;99.90;;;;;;5018013;28;20235;-82
2023/05/02 09:21:07;;;;;;;9.93;9.63;;;14.30;99.90;;;;;;5019174;28;20224;-83
2023/05/02 09:23:40;;;;;;;9.82;9.52;;;14.70;99.90;;;;;;5021509;28;20232;-83
2023/05/02 09:26:20;;;;;;;9.77;9.48;;;15.20;99.90;;;;;;5020423;28;20271;-83
2023/05/02 09:28:49;;;;;;;9.98;9.68;;;15.30;99.90;;;;;;5023797;28;20287;-84
2023/05/02 09:31:21;;;;;;;9.68;9.38;;;15.50;99.90;;;;;;5023846;28;20231;-85
2023/05/02 09:33:49;;;;;;;9.70;9.40;;;15.60;99.90;;;;;;5022708;28;20248;-82
2023/05/02 09:36:19;;;;;;;9.70;9.40;;;16.10;99.90;;;;;;5023270;28;20314;-83
2023/05/02 09:38:49;;;;;;;10.05;9.75;;;16.40;99.90;;;;;;5022708;28;20235;-83
2023/05/02 09:41:19;;;;;;;9.82;9.52;;;16.60;99.90;;;;;;5022958;28;20311;-84
2023/05/02 09:43:57;;;;;;;9.93;9.63;;;16.80;99.90;;;;;;5022152;28;20239;-84
2023/05/02 09:46:26;;;;;;;9.90;9.60;;;16.90;99.90;;;;;;5023104;28;20270;-85
2023/05/02 09:48:56;;;;;;;9.90;9.60;;;17.00;99.90;;;;;;5021860;28;20247;-83
2023/05/02 09:51:25;;;;;;;9.90;9.60;;;17.00;99.90;;;;;;5021458;28;20267;-83
2023/05/02 09:53:53;;;;;;;9.80;9.50;;;16.70;99.90;;;;;;5034565;28;20235;-82
2023/05/02 09:56:21;;;;;;;9.60;9.30;;;17.00;99.90;;;;;;5042127;28;20239;-83
2023/05/02 09:58:48;;;;;;;9.90;9.60;;;17.10;99.90;;;;;;5039972;28;20216;-81
2023/05/02 10:01:16;;;;;;;9.95;9.65;;;17.00;99.90;;;;;;5023879;28;20228;-83
2023/05/02 10:03:57;;;;;;;9.73;9.43;;;16.70;99.90;;;;;;5023208;28;20275;-82
2023/05/02 10:06:24;;;;;;;10.10;9.80;;;16.50;99.90;;;;;;5023148;28;20263;-83
2023/05/02 10:08:52;;;;;;;9.80;9.50;;;16.40;99.90;;;;;;5022893;28;20325;-83
2023/05/02 10:11:20;;;;;;;9.82;9.52;;;16.50;99.90;;;;;;5022819;28;20284;-83
2023/05/02 10:13:48;;;;;;;9.77;9.48;;;16.20;99.90;;;;;;5015105;28;20252;-83
2023/05/02 10:16:28;;;;;;;9.88;9.57;;;16.40;99.90;;;;;;5020265;28;20328;-82
2023/05/02 10:19:08;;;;;;;9.90;9.60;;;16.60;99.90;;;;;;5022829;28;20224;-82
2023/05/02 10:21:36;;;;;;;9.50;9.20;;;17.00;99.90;;;;;;5038883;28;20215;-83
2023/05/02 10:24:06;;;;;;;9.90;9.60;;;17.20;99.90;;;;;;5043232;28;20284;-87
2023/05/02 10:26:36;;;;;;;9.68;9.38;;;17.60;99.90;;;;;;5043340;28;20277;-87
2023/05/02 10:29:04;;;;;;;9.82;9.52;;;18.20;99.90;;;;;;5046004;28;20287;-88
2023/05/02 10:31:36;;;;;;;10.00;9.70;;;18.40;99.90;;;;;;5046851;28;20228;-88
2023/05/02 10:34:12;;;;;;;10.10;9.80;;;18.60;99.90;;;;;;5043800;28;20239;-87
2023/05/02 10:36:47;;;;;;;10.30;10.00;;;18.90;99.90;;;;;;5042706;28;20254;-87
2023/05/02 10:39:23;;;;;;;10.32;10.02;;;19.20;99.90;;;;;;5041425;28;20250;-85
2023/05/02 10:41:55;;;;;;;10.20;9.90;;;19.30;99.90;;;;;;5041504;28;20314;-81
2023/05/02 10:44:35;;;;;;;10.00;9.70;;;19.70;99.90;;;;;;5047539;28;20255;-88
2023/05/02 10:47:20;;;;;;;9.75;9.45;;;19.90;99.90;;;;;;5047654;28;20311;-82
2023/05/02 10:49:53;;;;;;;9.90;9.60;;;20.00;99.90;;;;;;5060084;28;20226;-83
2023/05/02 10:52:29;;;;;;;9.70;9.40;;;19.70;99.90;;;;;;5043568;28;20262;-83
2023/05/02 10:55:16;;;;;;;9.70;9.40;;;19.50;99.90;;;;;;5041217;28;20240;-83
2023/05/02 10:58:22;;;;;;;9.95;9.65;;;19.30;99.90;;;;;;5040976;28;20228;-83
2023/05/02 11:00:49;;;;;;;10.05;9.75;;;19.70;99.90;;;;;;5040183;28;20235;-83
2023/05/02 11:03:56;;;;;;;10.30;10.00;;;19.90;99.90;;;;;;5040032;28;20231;-83
2023/05/02 11:06:27;;;;;;;10.13;9.82;;;20.00;99.90;;;;;;5016178;28;20236;-84
2023/05/02 11:09:30;;;;;;;9.80;9.50;;;20.00;99.90;;;;;;5021484;28;20236;-84
2023/05/02 11:11:58;;;;;;;10.10;9.80;;;19.70;99.90;;;;;;5020329;28;20235;-84
2023/05/02 11:14:48;;;;;;;10.00;9.70;;;19.30;99.90;;;;;;5004624;28;20244;-84
2023/05/02 11:17:17;;;;;;;10.13;9.82;;;18.70;99.90;;;;;;5019955;28;20237;-83
2023/05/02 11:20:25;;;;;;;10.20;9.90;;;18.70;99.90;;;;;;5037305;28;20242;-83
2023/05/02 11:22:59;;;;;;;10.23;9.93;;;18.90;99.90;;;;;;5026576;28;20249;-83
2023/05/02 11:25:35;;;;;;;10.15;9.85;;;19.60;99.90;;;;;;5031592;28;20439;-83
2023/05/02 11:28:05;;;;;;;10.13;9.82;;;20.30;99.90;;;;;;5040056;28;20268;-83
2023/05/02 11:30:47;;;;;;;10.25;9.95;;;20.30;99.90;;;;;;5022839;28;20258;-83
2023/05/02 11:33:20;;;;;;;10.13;9.82;;;20.20;99.90;;;;;;5039101;28;20270;-83
2023/05/02 11:35:49;;;;;;;10.18;9.88;;;20.50;99.90;;;;;;5034843;28;20227;-84
2023/05/02 11:38:28;;;;;;;10.40;10.10;;;20.80;99.90;;;;;;5045326;28;20231;-83
2023/05/02 11:40:58;;;;;;;10.18;9.88;;;20.60;99.90;;;;;;5045164;28;20295;-83
2023/05/02 11:43:28;;;;;;;10.15;9.85;;;20.40;99.90;;;;;;5046023;28;20228;-83
2023/05/02 11:45:58;;;;;;;10.20;9.90;;;20.10;99.90;;;;;;5042925;28;20230;-85
2023/05/02 11:48:27;;;;;;;10.10;9.80;;;19.80;99.90;;;;;;5042471;28;20235;-85
2023/05/02 11:51:00;;;;;;;10.00;9.70;;;19.00;99.90;;;;;;5042401;28;20231;-86
2023/05/02 11:53:30;;;;;;;9.88;9.57;;;18.00;99.90;;;;;;5038906;28;20225;-85
2023/05/02 11:56:00;;;;;;;10.07;9.77;;;17.30;99.90;;;;;;5037997;28;20266;-86
2023/05/02 11:58:31;;;;;;;9.90;9.60;;;16.90;99.90;;;;;;5041143;28;20290;-86
2023/05/02 12:00:59;;;;;;;10.00;9.70;;;16.70;99.90;;;;;;5043012;28;20240;-85
2023/05/02 12:03:31;;;;;;;9.85;9.55;;;16.60;99.90;;;;;;5043694;28;20223;-84
2023/05/02 12:06:10;;;;;;;10.23;9.93;;;16.40;99.90;;;;;;5046255;28;20239;-84
2023/05/02 12:08:40;;;;;;;10.20;9.90;;;16.60;99.90;;;;;;5048013;28;20231;-85
2023/05/02 12:11:08;;;;;;;10.30;10.00;;;16.80;99.90;;;;;;5046912;28;20230;-85
2023/05/02 12:13:35;;;;;;;10.43;10.13;;;17.40;99.90;;;;;;5045514;28;20278;-86
2023/05/02 12:16:03;;;;;;;10.23;9.93;;;17.90;99.90;;;;;;5047756;28;20216;-85
2023/05/02 12:18:32;;;;;;;10.10;9.80;;;18.40;99.90;;;;;;5045034;28;20231;-85
2023/05/02 12:21:01;;;;;;;10.13;9.82;;;17.70;99.90;;;;;;5040177;28;20227;-85
2023/05/02 12:23:31;;;;;;;9.93;9.63;;;17.40;99.90;;;;;;5044212;28;20259;-84
2023/05/02 12:26:18;;;;;;;9.98;9.68;;;17.10;99.90;;;;;;5041438;28;20270;-86
2023/05/02 12:28:50;;;;;;;9.75;9.45;;;16.90;99.90;;;;;;5039667;28;20263;-86
2023/05/02 12:31:18;;;;;;;9.75;9.45;;;16.80;99.90;;;;;;5041994;28;20330;-86
2023/05/02 12:33:49;;;;;;;9.63;9.32;;;16.70;99.90;;;;;;5033173;28;20278;-86
2023/05/02 12:36:17;;;;;;;9.50;9.20;;;16.50;99.90;;;;;;5023651;28;20223;-84
2023/05/02 12:38:52;;;;;;;9.57;9.27;;;16.30;99.90;;;;;;5028305;28;20232;-85
2023/05/02 12:41:35;;;;;;;9.60;9.30;;;16.00;99.90;;;;;;5023466;28;20232;-84
2023/05/02 12:44:04;;;;;;;9.32;9.02;;;15.90;99.90;;;;;;5022145;28;20243;-85
2023/05/02 12:46:32;;;;;;;9.35;9.05;;;15.90;99.90;;;;;;5024068;28;20236;-85
2023/05/02 12:49:06;;;;;;;9.20;8.90;;;15.80;99.90;;;;;;5022867;28;20263;-85
2023/05/02 12:51:36;;;;;;;9.30;9.00;;;15.50;99.90;;;;;;5029046;28;20270;-84
2023/05/02 12:54:06;;;;;;;9.00;8.80;;;15.20;99.90;;;;;;5044618;28;20243;-85
2023/05/02 12:59:28;;;;;;;9.93;9.63;;;14.40;99.90;;;;;;5043981;28;20247;-84
2023/05/02 13:01:56;;;;;;;10.00;9.70;;;14.10;99.90;;;;;;5045909;28;20232;-84
2023/05/02 13:04:35;;;;;;;10.00;9.70;;;13.90;99.90;;;;;;5051815;28;20247;-82
2023/05/02 13:07:02;;;;;;;9.70;9.40;;;13.70;99.90;;;;;;5048290;28;20807;-83
2023/05/02 13:09:30;;;;;;;10.03;9.73;;;13.50;99.90;;;;;;5046796;28;20286;-83
2023/05/02 13:11:59;;;;;;;10.40;10.10;;;13.30;99.90;;;;;;5046549;28;20235;-84